createdAt,value
2022-08-14T00:00:21.902Z,85.05
2022-08-14T00:01:24.177Z,85.34
2022-08-14T00:02:21.842Z,84.47
2022-08-14T00:03:21.685Z,85.24
2022-08-14T00:04:32.225Z,85.14
2022-08-14T00:05:21.532Z,85.53
2022-08-14T00:06:25.791Z,84.86
2022-08-14T00:07:21.383Z,84.95
2022-08-14T00:08:45.175Z,85.05
2022-08-14T00:09:21.234Z,85.05
2022-08-14T00:10:51.492Z,84.76
2022-08-14T00:11:21.088Z,84.76
2022-08-14T00:12:24.046Z,84.72
2022-08-14T00:13:20.940Z,84.38
2022-08-14T00:14:20.866Z,83.99
2022-08-14T00:15:21.761Z,83.47
2022-08-14T00:16:40.332Z,84.18
2022-08-14T00:17:20.638Z,83.41
2022-08-14T00:19:05.592Z,83.47
2022-08-14T00:19:21.544Z,83.95
2022-08-14T00:20:23.780Z,83.95
2022-08-14T00:21:20.344Z,84.05
2022-08-14T00:22:44.599Z,82.60
2022-08-14T00:23:20.503Z,83.75
2022-08-14T00:24:23.274Z,83.28
2022-08-14T00:25:20.045Z,82.98
2022-08-14T00:26:23.236Z,83.08
2022-08-14T00:27:19.898Z,82.79
2022-08-14T00:28:19.815Z,83.28
2022-08-14T00:29:19.747Z,83.28
2022-08-14T00:30:19.663Z,82.50
2022-08-14T00:31:19.596Z,82.41
2022-08-14T00:32:52.369Z,83.95
2022-08-14T00:33:19.442Z,82.79
2022-08-14T00:34:36.257Z,82.79
2022-08-14T00:35:19.295Z,83.08
2022-08-14T00:36:35.716Z,82.70
2022-08-14T00:37:19.145Z,83.47
2022-08-14T00:38:19.075Z,84.05
2022-08-14T00:39:19.010Z,83.28
2022-08-14T00:40:33.188Z,83.56
2022-08-14T00:41:18.849Z,82.50
2022-08-14T00:42:21.474Z,82.70
2022-08-14T00:43:18.702Z,83.95
2022-08-14T00:44:21.393Z,82.70
2022-08-14T00:45:18.547Z,81.54
2022-08-14T00:46:33.328Z,82.12
2022-08-14T00:47:18.406Z,81.73
2022-08-14T00:48:33.892Z,82.31
2022-08-14T00:49:18.253Z,82.70
2022-08-14T00:50:18.238Z,82.21
2022-08-14T00:51:18.099Z,82.02
2022-08-14T00:52:18.646Z,80.58
2022-08-14T00:53:17.949Z,79.96
2022-08-14T00:54:21.776Z,79.96
2022-08-14T00:55:17.805Z,79.38
2022-08-14T00:56:17.738Z,79.96
2022-08-14T00:57:17.652Z,79.86
2022-08-14T00:58:17.579Z,79.10
2022-08-14T00:59:17.502Z,77.94
2022-08-14T01:00:34.151Z,77.08
2022-08-14T01:01:17.379Z,76.69
2022-08-14T01:02:17.271Z,75.63
2022-08-14T01:03:17.202Z,77.17
2022-08-14T01:04:51.821Z,75.92
2022-08-14T01:05:17.051Z,76.78
2022-08-14T01:06:17.011Z,76.88
2022-08-14T01:07:16.906Z,76.21
2022-08-14T01:08:20.694Z,76.01
2022-08-14T01:09:16.758Z,76.31
2022-08-14T01:10:16.673Z,75.05
2022-08-14T01:11:19.546Z,74.76
2022-08-14T01:12:27.205Z,75.63
2022-08-14T01:13:16.451Z,75.73
2022-08-14T01:14:25.900Z,74.76
2022-08-14T01:15:16.303Z,76.01
2022-08-14T01:16:16.233Z,75.82
2022-08-14T01:17:16.158Z,74.92
2022-08-14T01:18:16.075Z,74.05
2022-08-14T01:19:16.008Z,75.15
2022-08-14T01:20:27.529Z,74.96
2022-08-14T01:21:15.861Z,76.40
2022-08-14T01:22:18.499Z,75.24
2022-08-14T01:23:19.023Z,75.24
2022-08-14T01:24:22.862Z,74.57
2022-08-14T01:25:15.548Z,74.57
2022-08-14T01:26:15.477Z,74.38
2022-08-14T01:27:15.403Z,74.76
2022-08-14T01:28:46.182Z,74.19
2022-08-14T01:29:22.153Z,75.05
2022-08-14T01:30:16.817Z,74.09
2022-08-14T01:31:15.103Z,74.29
2022-08-14T01:32:15.696Z,75.05
2022-08-14T01:33:14.948Z,74.38
2022-08-14T01:35:18.447Z,73.32
2022-08-14T01:35:19.617Z,74.15
2022-08-14T01:36:21.229Z,73.09
2022-08-14T01:37:16.535Z,73.38
2022-08-14T01:38:14.570Z,73.90
2022-08-14T01:39:14.501Z,73.71
2022-08-14T01:40:15.377Z,73.90
2022-08-14T01:41:15.047Z,73.77
2022-08-14T01:42:32.182Z,73.47
2022-08-14T01:43:14.203Z,73.28
2022-08-14T01:44:32.969Z,72.94
2022-08-14T01:45:17.903Z,73.09
2022-08-14T01:46:24.400Z,74.05
2022-08-14T01:47:21.062Z,72.52
2022-08-14T01:48:14.192Z,72.13
2022-08-14T01:49:13.749Z,71.75
2022-08-14T01:50:14.357Z,71.94
2022-08-14T01:51:19.064Z,70.59
2022-08-14T01:52:34.527Z,70.40
2022-08-14T01:53:13.443Z,68.76
2022-08-14T01:54:14.387Z,70.78
2022-08-14T01:55:13.299Z,70.17
2022-08-14T01:56:18.232Z,70.21
2022-08-14T01:57:13.146Z,68.86
2022-08-14T01:58:20.227Z,68.15
2022-08-14T01:59:18.241Z,68.63
2022-08-14T02:00:12.918Z,68.25
2022-08-14T02:01:12.870Z,67.68
2022-08-14T02:02:14.772Z,68.63
2022-08-14T02:03:12.701Z,67.68
2022-08-14T02:04:20.585Z,66.71
2022-08-14T02:05:12.542Z,66.91
2022-08-14T02:06:32.153Z,67.29
2022-08-14T02:07:15.743Z,67.68
2022-08-14T02:08:12.317Z,67.77
2022-08-14T02:09:22.273Z,67.29
2022-08-14T02:10:13.089Z,67.48
2022-08-14T02:11:12.089Z,67.68
2022-08-14T02:12:19.659Z,67.10
2022-08-14T02:13:11.940Z,67.29
2022-08-14T02:14:14.192Z,67.51
2022-08-14T02:15:11.797Z,67.38
2022-08-14T02:16:22.129Z,67.38
2022-08-14T02:17:11.641Z,66.33
2022-08-14T02:18:15.047Z,69.12
2022-08-14T02:19:11.494Z,69.50
2022-08-14T02:20:11.409Z,69.92
2022-08-14T02:21:11.339Z,70.01
2022-08-14T02:22:11.264Z,69.53
2022-08-14T02:23:11.421Z,69.21
2022-08-14T02:24:38.932Z,68.06
2022-08-14T02:25:11.037Z,67.38
2022-08-14T02:26:24.231Z,64.89
2022-08-14T02:28:23.108Z,63.83
2022-08-14T02:28:25.869Z,64.50
2022-08-14T02:29:10.730Z,63.54
2022-08-14T02:30:10.656Z,63.35
2022-08-14T02:31:10.585Z,64.02
2022-08-14T02:32:10.505Z,63.83
2022-08-14T02:33:10.791Z,62.87
2022-08-14T02:34:20.068Z,63.54
2022-08-14T02:35:10.367Z,64.02
2022-08-14T02:37:04.109Z,63.64
2022-08-14T02:37:10.130Z,64.12
2022-08-14T02:38:11.708Z,63.15
2022-08-14T02:39:09.977Z,62.77
2022-08-14T02:40:09.903Z,63.35
2022-08-14T02:41:11.084Z,63.35
2022-08-14T02:42:13.215Z,63.54
2022-08-14T02:43:09.676Z,63.54
2022-08-14T02:44:09.602Z,63.35
2022-08-14T02:45:09.529Z,63.15
2022-08-14T02:46:09.448Z,62.68
2022-08-14T02:47:14.733Z,63.54
2022-08-14T02:48:10.516Z,62.48
2022-08-14T02:49:09.227Z,62.48
2022-08-14T02:50:09.146Z,62.58
2022-08-14T02:51:09.302Z,62.77
2022-08-14T02:52:56.825Z,64.02
2022-08-14T02:53:09.014Z,63.73
2022-08-14T02:54:08.843Z,64.40
2022-08-14T02:55:08.781Z,63.83
2022-08-14T02:56:10.201Z,63.06
2022-08-14T02:57:15.698Z,62.19
2022-08-14T02:58:08.541Z,62.10
2022-08-14T02:59:08.472Z,61.71
2022-08-14T03:00:09.871Z,61.81
2022-08-14T03:01:08.353Z,61.30
2022-08-14T03:02:08.268Z,61.61
2022-08-14T03:03:08.437Z,61.11
2022-08-14T03:04:08.086Z,61.20
2022-08-14T03:05:08.015Z,60.72
2022-08-14T03:06:08.985Z,60.34
2022-08-14T03:07:08.379Z,60.63
2022-08-14T03:08:07.935Z,60.72
2022-08-14T03:09:07.708Z,59.95
2022-08-14T03:10:28.088Z,60.05
2022-08-14T03:11:07.839Z,60.14
2022-08-14T03:12:07.480Z,59.57
2022-08-14T03:13:07.408Z,58.03
2022-08-14T03:14:07.330Z,58.80
2022-08-14T03:15:07.256Z,58.42
2022-08-14T03:16:08.941Z,58.61
2022-08-14T03:17:07.110Z,58.13
2022-08-14T03:18:07.029Z,58.42
2022-08-14T03:19:06.955Z,58.99
2022-08-14T03:20:06.881Z,59.95
2022-08-14T03:21:07.432Z,58.32
2022-08-14T03:22:09.333Z,59.09
2022-08-14T03:23:06.652Z,58.42
2022-08-14T03:24:06.579Z,58.51
2022-08-14T03:25:06.503Z,58.32
2022-08-14T03:26:06.433Z,58.99
2022-08-14T03:27:06.351Z,59.66
2022-08-14T03:28:06.272Z,58.61
2022-08-14T03:29:06.194Z,56.21
2022-08-14T03:30:06.120Z,56.01
2022-08-14T03:31:08.395Z,56.49
2022-08-14T03:32:05.972Z,56.11
2022-08-14T03:33:05.895Z,55.91
2022-08-14T03:34:05.816Z,54.57
2022-08-14T03:35:08.944Z,55.05
2022-08-14T03:37:15.418Z,54.96
2022-08-14T03:37:51.539Z,53.70
2022-08-14T03:39:13.130Z,54.38
2022-08-14T03:39:16.051Z,52.36
2022-08-14T03:40:05.447Z,52.94
2022-08-14T03:41:05.291Z,54.00
2022-08-14T03:42:05.212Z,51.88
2022-08-14T03:43:05.144Z,52.36
2022-08-14T03:45:20.078Z,53.61
2022-08-14T03:45:26.173Z,51.88
2022-08-14T03:46:10.015Z,53.70
2022-08-14T03:47:04.834Z,53.13
2022-08-14T03:48:04.761Z,52.84
2022-08-14T03:49:04.679Z,52.65
2022-08-14T03:50:04.607Z,52.46
2022-08-14T03:51:04.529Z,53.13
2022-08-14T03:52:04.455Z,53.70
2022-08-14T03:53:04.510Z,52.55
2022-08-14T03:54:04.301Z,52.55
2022-08-14T03:55:04.226Z,52.26
2022-08-14T03:56:04.150Z,51.88
2022-08-14T03:57:04.076Z,51.98
2022-08-14T03:58:03.997Z,52.75
2022-08-14T03:59:03.925Z,53.70
2022-08-14T04:00:03.857Z,52.26
2022-08-14T04:01:03.809Z,51.59
2022-08-14T04:02:04.814Z,52.08
2022-08-14T04:03:03.626Z,52.46
2022-08-14T04:04:03.543Z,52.46
2022-08-14T04:05:11.513Z,52.46
2022-08-14T04:06:03.392Z,53.52
2022-08-14T04:07:03.328Z,53.32
2022-08-14T04:08:22.536Z,53.70
2022-08-14T04:09:03.168Z,53.23
2022-08-14T04:10:03.092Z,52.65
2022-08-14T04:11:07.959Z,52.55
2022-08-14T04:12:02.935Z,52.26
2022-08-14T04:13:03.372Z,52.46
2022-08-14T04:14:02.785Z,52.36
2022-08-14T04:15:02.709Z,51.31
2022-08-14T04:16:05.032Z,51.79
2022-08-14T04:17:02.562Z,50.54
2022-08-14T04:18:02.483Z,51.31
2022-08-14T04:19:02.411Z,52.26
2022-08-14T04:20:02.333Z,51.79
2022-08-14T04:21:02.260Z,52.17
2022-08-14T04:22:04.028Z,52.55
2022-08-14T04:23:02.112Z,52.17
2022-08-14T04:24:02.044Z,52.08
2022-08-14T04:25:04.886Z,51.88
2022-08-14T04:26:01.874Z,51.21
2022-08-14T04:27:01.798Z,50.54
2022-08-14T04:28:03.619Z,50.63
2022-08-14T04:29:13.735Z,51.11
2022-08-14T04:30:01.572Z,50.44
2022-08-14T04:31:01.496Z,50.73
2022-08-14T04:33:02.796Z,50.34
2022-08-14T04:33:05.400Z,50.54
2022-08-14T04:34:01.270Z,50.63
2022-08-14T04:35:01.192Z,50.34
2022-08-14T04:36:01.119Z,50.05
2022-08-14T04:37:01.046Z,50.44
2022-08-14T04:38:00.967Z,50.34
2022-08-14T04:39:00.890Z,49.96
2022-08-14T04:40:00.872Z,50.34
2022-08-14T04:41:00.737Z,50.92
2022-08-14T04:42:00.661Z,50.05
2022-08-14T04:43:00.584Z,49.29
2022-08-14T04:44:00.508Z,49.19
2022-08-14T04:45:01.009Z,50.54
2022-08-14T04:46:00.361Z,48.90
2022-08-14T04:47:00.283Z,48.13
2022-08-14T04:48:00.205Z,49.00
2022-08-14T04:49:00.540Z,47.27
2022-08-14T04:50:00.061Z,47.08
2022-08-14T04:50:59.978Z,47.08
2022-08-14T04:51:59.904Z,47.85
2022-08-14T04:52:59.829Z,43.23
2022-08-14T04:53:59.775Z,43.62
2022-08-14T04:54:59.674Z,45.54
2022-08-14T04:55:59.599Z,44.48
2022-08-14T04:56:59.533Z,43.45
2022-08-14T04:57:59.464Z,43.62
2022-08-14T04:58:59.375Z,42.37
2022-08-14T04:59:59.303Z,42.47
2022-08-14T05:00:59.220Z,42.27
2022-08-14T05:01:59.189Z,42.47
2022-08-14T05:02:59.083Z,42.47
2022-08-14T05:03:58.996Z,42.77
2022-08-14T05:04:58.971Z,42.58
2022-08-14T05:05:58.846Z,43.07
2022-08-14T05:06:58.765Z,42.58
2022-08-14T05:08:01.795Z,42.77
2022-08-14T05:09:00.296Z,43.07
2022-08-14T05:09:58.540Z,43.35
2022-08-14T05:10:58.464Z,40.66
2022-08-14T05:13:08.309Z,40.85
2022-08-14T05:13:13.145Z,41.91
2022-08-14T05:14:16.891Z,40.37
2022-08-14T05:14:58.163Z,40.66
2022-08-14T05:15:58.084Z,40.76
2022-08-14T05:17:01.581Z,41.43
2022-08-14T05:18:17.039Z,41.33
2022-08-14T05:19:18.284Z,42.00
2022-08-14T05:21:04.282Z,42.00
2022-08-14T05:21:56.520Z,42.39
2022-08-14T05:22:16.087Z,40.85
2022-08-14T05:22:57.556Z,42.20
2022-08-14T05:23:57.480Z,40.08
2022-08-14T05:24:57.405Z,41.05
2022-08-14T05:25:57.329Z,41.16
2022-08-14T05:26:57.252Z,40.01
2022-08-14T05:27:57.178Z,40.68
2022-08-14T05:28:58.204Z,39.81
2022-08-14T05:29:57.446Z,40.68
2022-08-14T05:30:56.953Z,40.01
2022-08-14T05:31:58.032Z,40.78
2022-08-14T05:32:56.797Z,39.72
2022-08-14T05:33:57.184Z,40.01
2022-08-14T05:34:56.668Z,39.91
2022-08-14T05:35:56.578Z,40.97
2022-08-14T05:37:02.003Z,40.39
2022-08-14T05:37:56.427Z,40.88
2022-08-14T05:38:56.349Z,41.74
2022-08-14T05:39:56.377Z,41.06
2022-08-14T05:40:56.197Z,42.80
2022-08-14T05:41:56.129Z,42.60
2022-08-14T05:42:56.694Z,41.86
2022-08-14T05:43:55.965Z,42.82
2022-08-14T05:44:56.205Z,41.26
2022-08-14T05:45:55.838Z,42.91
2022-08-14T05:46:55.747Z,42.72
2022-08-14T05:47:55.667Z,42.91
2022-08-14T05:48:55.589Z,43.59
2022-08-14T05:49:55.520Z,43.97
2022-08-14T05:50:55.441Z,43.59
2022-08-14T05:51:55.363Z,44.35
2022-08-14T05:52:55.548Z,44.17
2022-08-14T05:54:00.314Z,44.65
2022-08-14T05:54:55.143Z,44.35
2022-08-14T05:55:55.066Z,44.93
2022-08-14T05:56:55.205Z,44.93
2022-08-14T05:57:55.010Z,44.55
2022-08-14T05:58:54.836Z,44.35
2022-08-14T05:59:54.761Z,44.84
2022-08-14T06:00:54.695Z,44.07
2022-08-14T06:01:54.638Z,43.59
2022-08-14T06:02:54.538Z,44.55
2022-08-14T06:03:54.773Z,44.67
2022-08-14T06:04:54.384Z,45.53
2022-08-14T06:05:54.314Z,46.31
2022-08-14T06:06:54.236Z,45.83
2022-08-14T06:07:54.162Z,44.96
2022-08-14T06:08:54.084Z,45.63
2022-08-14T06:09:54.007Z,46.21
2022-08-14T06:10:53.935Z,46.50
2022-08-14T06:11:53.879Z,46.21
2022-08-14T06:13:00.146Z,47.17
2022-08-14T06:13:53.709Z,46.88
2022-08-14T06:14:53.638Z,47.27
2022-08-14T06:15:53.557Z,48.90
2022-08-14T06:16:53.562Z,48.33
2022-08-14T06:17:56.651Z,49.00
2022-08-14T06:18:53.490Z,49.38
2022-08-14T06:19:53.285Z,46.98
2022-08-14T06:20:53.185Z,49.10
2022-08-14T06:21:59.096Z,50.35
2022-08-14T06:22:53.041Z,50.47
2022-08-14T06:23:52.963Z,50.76
2022-08-14T06:24:52.891Z,50.95
2022-08-14T06:25:53.375Z,50.37
2022-08-14T06:26:57.010Z,52.01
2022-08-14T06:27:52.669Z,50.47
2022-08-14T06:28:52.797Z,52.49
2022-08-14T06:29:52.513Z,52.87
2022-08-14T06:30:52.434Z,53.74
2022-08-14T06:32:00.158Z,53.74
2022-08-14T06:32:53.286Z,55.67
2022-08-14T06:35:03.837Z,55.67
2022-08-14T06:35:10.123Z,54.32
2022-08-14T06:35:52.059Z,55.99
2022-08-14T06:36:51.980Z,55.70
2022-08-14T06:37:51.907Z,55.70
2022-08-14T06:38:52.277Z,55.89
2022-08-14T06:39:51.789Z,56.85
2022-08-14T06:40:51.685Z,57.05
2022-08-14T06:41:59.402Z,57.14
2022-08-14T06:42:51.546Z,57.72
2022-08-14T06:43:51.457Z,56.76
2022-08-14T06:44:51.385Z,57.62
2022-08-14T06:45:54.552Z,58.78
2022-08-14T06:46:51.237Z,59.94
2022-08-14T06:47:51.162Z,60.61
2022-08-14T06:48:51.093Z,60.71
2022-08-14T06:49:57.843Z,59.94
2022-08-14T06:50:50.932Z,60.61
2022-08-14T06:51:50.869Z,60.80
2022-08-14T06:52:50.794Z,60.80
2022-08-14T06:53:50.896Z,60.32
2022-08-14T06:54:50.644Z,61.68
2022-08-14T06:55:58.192Z,63.44
2022-08-14T06:56:54.288Z,62.45
2022-08-14T06:57:50.410Z,66.49
2022-08-14T06:58:50.342Z,64.59
2022-08-14T06:59:50.277Z,64.69
2022-08-14T07:00:50.382Z,65.14
2022-08-14T07:01:50.151Z,64.89
2022-08-14T07:02:50.053Z,65.53
2022-08-14T07:03:49.970Z,65.85
2022-08-14T07:04:49.891Z,66.24
2022-08-14T07:05:55.217Z,65.17
2022-08-14T07:06:49.745Z,66.62
2022-08-14T07:07:49.670Z,66.04
2022-08-14T07:08:49.592Z,65.66
2022-08-14T07:09:51.284Z,66.52
2022-08-14T07:10:49.450Z,67.00
2022-08-14T07:11:49.371Z,67.88
2022-08-14T07:13:02.422Z,67.71
2022-08-14T07:13:49.227Z,67.71
2022-08-14T07:14:49.152Z,67.33
2022-08-14T07:15:49.068Z,68.01
2022-08-14T07:16:48.999Z,67.91
2022-08-14T07:17:51.934Z,68.59
2022-08-14T07:18:50.885Z,67.52
2022-08-14T07:19:48.774Z,67.71
2022-08-14T07:20:48.705Z,69.93
2022-08-14T07:21:48.628Z,71.67
2022-08-14T07:22:56.012Z,71.00
2022-08-14T07:23:48.477Z,70.32
2022-08-14T07:24:48.402Z,71.96
2022-08-14T07:25:48.331Z,72.28
2022-08-14T07:26:48.253Z,69.29
2022-08-14T07:27:48.181Z,71.90
2022-08-14T07:28:48.111Z,72.86
2022-08-14T07:29:48.033Z,72.38
2022-08-14T07:30:50.955Z,71.22
2022-08-14T07:31:47.884Z,70.45
2022-08-14T07:32:48.107Z,73.44
2022-08-14T07:33:50.625Z,73.54
2022-08-14T07:34:47.658Z,73.93
2022-08-14T07:35:58.696Z,73.73
2022-08-14T07:36:57.967Z,74.60
2022-08-14T07:37:47.434Z,74.73
2022-08-14T07:38:52.050Z,74.64
2022-08-14T07:39:47.346Z,75.31
2022-08-14T07:40:47.219Z,74.25
2022-08-14T07:41:47.140Z,73.48
2022-08-14T07:42:47.073Z,76.37
2022-08-14T07:43:52.933Z,75.79
2022-08-14T07:44:50.617Z,75.16
2022-08-14T07:45:46.844Z,76.51
2022-08-14T07:46:46.782Z,76.42
2022-08-14T07:47:46.699Z,78.25
2022-08-14T07:48:48.145Z,78.83
2022-08-14T07:49:46.551Z,80.76
2022-08-14T07:50:46.476Z,82.02
2022-08-14T07:51:49.595Z,82.50
2022-08-14T07:52:46.516Z,82.89
2022-08-14T07:53:46.270Z,82.69
2022-08-14T07:54:46.181Z,81.82
2022-08-14T07:55:46.104Z,82.69
2022-08-14T07:56:48.823Z,83.08
2022-08-14T07:57:45.958Z,82.60
2022-08-14T07:58:51.680Z,85.59
2022-08-14T07:59:46.892Z,85.59
2022-08-14T08:00:45.734Z,85.88
2022-08-14T08:01:48.449Z,85.11
2022-08-14T08:02:45.824Z,85.05
2022-08-14T08:03:47.676Z,85.05
2022-08-14T08:04:45.441Z,85.63
2022-08-14T08:05:45.369Z,86.79
2022-08-14T08:06:45.308Z,86.11
2022-08-14T08:07:45.226Z,85.63
2022-08-14T08:08:45.149Z,84.67
2022-08-14T08:09:45.866Z,86.99
2022-08-14T08:11:01.977Z,86.69
2022-08-14T08:11:44.939Z,86.60
2022-08-14T08:12:45.003Z,86.51
2022-08-14T08:13:49.087Z,84.86
2022-08-14T08:14:55.642Z,86.69
2022-08-14T08:15:44.639Z,87.57
2022-08-14T08:16:44.558Z,88.05
2022-08-14T08:17:53.916Z,89.31
2022-08-14T08:18:44.413Z,90.03
2022-08-14T08:19:44.538Z,89.35
2022-08-14T08:20:44.264Z,89.06
2022-08-14T08:21:45.194Z,89.83
2022-08-14T08:22:47.913Z,90.51
2022-08-14T08:23:51.197Z,90.51
2022-08-14T08:24:43.970Z,91.09
2022-08-14T08:25:43.896Z,90.03
2022-08-14T08:26:43.828Z,90.90
2022-08-14T08:27:44.664Z,90.12
2022-08-14T08:28:44.119Z,90.12
2022-08-14T08:29:43.609Z,91.77
2022-08-14T08:30:45.037Z,91.28
2022-08-14T08:31:48.443Z,89.64
2022-08-14T08:32:43.509Z,90.80
2022-08-14T08:33:43.310Z,93.32
2022-08-14T08:34:43.236Z,94.23
2022-08-14T08:35:46.839Z,94.52
2022-08-14T08:36:43.091Z,94.43
2022-08-14T08:37:43.697Z,94.23
2022-08-14T08:39:14.552Z,94.04
2022-08-14T08:40:02.775Z,92.78
2022-08-14T08:40:42.849Z,95.29
2022-08-14T08:41:43.259Z,95.39
2022-08-14T08:42:44.832Z,94.62
2022-08-14T08:43:46.145Z,94.91
2022-08-14T08:44:42.511Z,95.10
2022-08-14T08:45:42.430Z,95.29
2022-08-14T08:46:42.357Z,94.71
2022-08-14T08:47:42.287Z,95.97
2022-08-14T08:48:49.854Z,96.07
2022-08-14T08:49:43.131Z,93.89
2022-08-14T08:50:42.069Z,95.34
2022-08-14T08:51:43.136Z,97.18
2022-08-14T08:52:42.065Z,96.31
2022-08-14T08:53:41.847Z,97.38
2022-08-14T08:54:41.772Z,95.83
2022-08-14T08:55:42.478Z,96.80
2022-08-14T08:56:42.086Z,96.89
2022-08-14T08:57:41.558Z,96.99
2022-08-14T08:58:41.481Z,97.18
2022-08-14T08:59:42.180Z,96.65
2022-08-14T09:00:41.369Z,97.57
2022-08-14T09:01:41.269Z,97.67
2022-08-14T09:02:41.231Z,97.96
2022-08-14T09:03:41.117Z,98.05
2022-08-14T09:04:45.209Z,97.62
2022-08-14T09:05:40.967Z,97.81
2022-08-14T09:07:09.201Z,97.62
2022-08-14T09:07:40.830Z,97.23
2022-08-14T09:08:40.752Z,97.42
2022-08-14T09:09:54.533Z,97.03
2022-08-14T09:10:40.605Z,97.13
2022-08-14T09:11:40.535Z,96.75
2022-08-14T09:12:40.461Z,97.23
2022-08-14T09:13:40.389Z,97.52
2022-08-14T09:14:40.313Z,97.03
2022-08-14T09:15:42.570Z,96.75
2022-08-14T09:16:40.176Z,97.33
2022-08-14T09:17:40.307Z,97.33
2022-08-14T09:18:40.028Z,97.42
2022-08-14T09:19:39.949Z,96.45
2022-08-14T09:20:39.881Z,97.62
2022-08-14T09:21:39.805Z,97.42
2022-08-14T09:22:47.726Z,96.55
2022-08-14T09:24:26.784Z,96.84
2022-08-14T09:24:44.161Z,95.87
2022-08-14T09:25:59.971Z,95.10
2022-08-14T09:26:39.440Z,96.26
2022-08-14T09:27:39.891Z,96.07
2022-08-14T09:28:39.303Z,96.94
2022-08-14T09:29:39.229Z,96.02
2022-08-14T09:30:39.449Z,95.05
2022-08-14T09:31:42.989Z,94.57
2022-08-14T09:32:58.937Z,94.95
2022-08-14T09:33:56.041Z,94.18
2022-08-14T09:34:38.860Z,94.37
2022-08-14T09:35:38.787Z,92.63
2022-08-14T09:36:38.718Z,95.25
2022-08-14T09:37:38.645Z,95.15
2022-08-14T09:38:40.713Z,96.41
2022-08-14T09:39:38.586Z,95.97
2022-08-14T09:40:38.813Z,96.26
2022-08-14T09:42:21.049Z,94.90
2022-08-14T09:42:49.872Z,95.00
2022-08-14T09:43:38.209Z,94.42
2022-08-14T09:44:38.140Z,94.13
2022-08-14T09:45:39.791Z,93.35
2022-08-14T09:46:37.990Z,94.23
2022-08-14T09:47:37.919Z,93.74
2022-08-14T09:48:37.847Z,92.29
2022-08-14T09:49:40.102Z,91.51
2022-08-14T09:50:37.699Z,91.07
2022-08-14T09:51:44.717Z,91.55
2022-08-14T09:52:37.556Z,91.55
2022-08-14T09:54:18.256Z,92.62
2022-08-14T09:54:37.411Z,93.20
2022-08-14T09:55:42.464Z,91.36
2022-08-14T09:56:37.272Z,89.42
2022-08-14T09:57:37.208Z,87.58
2022-08-14T09:58:37.123Z,85.93
2022-08-14T09:59:37.048Z,85.35
2022-08-14T10:00:36.974Z,85.93
2022-08-14T10:01:37.298Z,85.58
2022-08-14T10:02:36.834Z,86.36
2022-08-14T10:03:36.757Z,87.13
2022-08-14T10:04:39.209Z,86.07
2022-08-14T10:05:39.042Z,86.65
2022-08-14T10:06:36.548Z,86.85
2022-08-14T10:07:36.475Z,85.58
2022-08-14T10:08:36.399Z,85.33
2022-08-14T10:09:36.323Z,83.29
2022-08-14T10:10:36.256Z,85.43
2022-08-14T10:11:36.197Z,86.40
2022-08-14T10:12:36.115Z,82.81
2022-08-14T10:13:42.870Z,81.84
2022-08-14T10:14:37.146Z,81.06
2022-08-14T10:15:35.899Z,81.74
2022-08-14T10:16:35.821Z,81.93
2022-08-14T10:17:38.849Z,81.31
2022-08-14T10:18:35.672Z,80.73
2022-08-14T10:19:36.418Z,85.68
2022-08-14T10:20:39.968Z,86.65
2022-08-14T10:21:38.995Z,86.46
2022-08-14T10:23:13.006Z,86.46
2022-08-14T10:23:35.537Z,87.43
2022-08-14T10:24:36.857Z,88.49
2022-08-14T10:25:35.171Z,88.40
2022-08-14T10:26:35.101Z,86.16
2022-08-14T10:27:35.030Z,86.94
2022-08-14T10:29:03.717Z,85.24
2022-08-14T10:29:34.882Z,85.53
2022-08-14T10:30:34.829Z,83.39
2022-08-14T10:31:44.797Z,83.29
2022-08-14T10:32:36.595Z,83.20
2022-08-14T10:33:34.594Z,81.59
2022-08-14T10:34:36.613Z,81.68
2022-08-14T10:35:34.451Z,83.04
2022-08-14T10:36:37.273Z,80.91
2022-08-14T10:37:34.318Z,80.23
2022-08-14T10:38:34.243Z,80.42
2022-08-14T10:39:34.190Z,79.64
2022-08-14T10:40:37.476Z,79.64
2022-08-14T10:41:34.028Z,76.18
2022-08-14T10:42:33.955Z,78.81
2022-08-14T10:43:33.878Z,78.33
2022-08-14T10:44:33.808Z,81.63
2022-08-14T10:45:35.544Z,77.25
2022-08-14T10:47:39.641Z,77.00
2022-08-14T10:47:41.429Z,75.80
2022-08-14T10:48:36.865Z,76.22
2022-08-14T10:49:33.450Z,75.35
2022-08-14T10:50:33.376Z,74.48
2022-08-14T10:51:34.292Z,72.82
2022-08-14T10:52:33.903Z,73.21
2022-08-14T10:53:33.190Z,73.11
2022-08-14T10:54:36.088Z,72.63
2022-08-14T10:55:33.023Z,71.75
2022-08-14T10:56:33.784Z,72.33
2022-08-14T10:57:32.882Z,71.40
2022-08-14T10:58:34.280Z,70.42
2022-08-14T10:59:37.329Z,70.32
2022-08-14T11:00:35.909Z,69.35
2022-08-14T11:01:32.594Z,69.16
2022-08-14T11:02:36.074Z,69.10
2022-08-14T11:03:55.661Z,67.83
2022-08-14T11:04:32.388Z,66.76
2022-08-14T11:05:32.316Z,66.76
2022-08-14T11:06:32.245Z,66.66
2022-08-14T11:07:32.168Z,67.35
2022-08-14T11:08:32.101Z,69.52
2022-08-14T11:09:32.456Z,69.03
2022-08-14T11:10:31.968Z,68.26
2022-08-14T11:11:37.146Z,68.26
2022-08-14T11:12:33.881Z,66.79
2022-08-14T11:13:31.742Z,68.45
2022-08-14T11:14:31.671Z,67.18
2022-08-14T11:15:32.496Z,69.62
2022-08-14T11:16:31.537Z,67.18
2022-08-14T11:17:32.064Z,67.96
2022-08-14T11:18:35.682Z,67.08
2022-08-14T11:19:31.322Z,65.53
2022-08-14T11:20:31.254Z,65.56
2022-08-14T11:21:34.157Z,65.17
2022-08-14T11:22:55.500Z,66.24
2022-08-14T11:23:38.113Z,65.46
2022-08-14T11:24:50.713Z,65.36
2022-08-14T11:25:43.982Z,65.17
2022-08-14T11:26:30.825Z,63.81
2022-08-14T11:27:33.287Z,64.13
2022-08-14T11:28:47.381Z,63.35
2022-08-14T11:29:37.792Z,62.86
2022-08-14T11:31:39.005Z,62.18
2022-08-14T11:32:34.377Z,62.08
2022-08-14T11:34:38.223Z,63.06
2022-08-14T11:35:47.731Z,62.86
2022-08-14T11:37:41.986Z,64.26
2022-08-14T11:38:44.969Z,64.84
2022-08-14T11:39:41.888Z,64.45
2022-08-14T11:40:41.760Z,63.77
2022-08-14T11:41:46.716Z,62.70
2022-08-14T11:42:58.549Z,62.21
2022-08-14T11:43:41.743Z,63.02
2022-08-14T11:44:45.573Z,62.24
2022-08-14T11:45:41.417Z,61.46
2022-08-14T11:46:41.341Z,61.46
2022-08-14T11:47:43.947Z,61.27
2022-08-14T11:49:02.688Z,60.68
2022-08-14T11:49:41.136Z,59.80
2022-08-14T11:50:41.062Z,61.66
2022-08-14T11:51:54.041Z,60.71
2022-08-14T11:52:40.955Z,60.81
2022-08-14T11:53:42.231Z,60.91
2022-08-14T11:54:40.784Z,60.45
2022-08-14T11:55:40.719Z,61.72
2022-08-14T11:56:40.643Z,59.57
2022-08-14T11:57:40.578Z,58.79
2022-08-14T11:58:40.504Z,58.40
2022-08-14T11:59:44.128Z,60.35
2022-08-14T12:00:40.369Z,59.86
2022-08-14T12:01:41.123Z,58.40
2022-08-14T12:03:03.454Z,58.27
2022-08-14T12:03:51.192Z,59.86
2022-08-14T12:04:40.227Z,59.08
2022-08-14T12:05:40.061Z,58.98
2022-08-14T12:06:40.009Z,59.47
2022-08-14T12:07:48.258Z,58.01
2022-08-14T12:08:39.812Z,58.40
2022-08-14T12:09:43.061Z,57.32
2022-08-14T12:10:41.125Z,58.23
2022-08-14T12:11:43.924Z,56.67
2022-08-14T12:12:39.536Z,56.96
2022-08-14T12:13:39.469Z,57.54
2022-08-14T12:14:43.968Z,58.26
2022-08-14T12:15:44.705Z,56.99
2022-08-14T12:16:39.259Z,57.18
2022-08-14T12:17:47.688Z,54.83
2022-08-14T12:18:39.116Z,56.62
2022-08-14T12:19:39.052Z,57.31
2022-08-14T12:20:45.972Z,55.35
2022-08-14T12:21:38.912Z,57.04
2022-08-14T12:22:40.191Z,54.86
2022-08-14T12:23:38.784Z,54.30
2022-08-14T12:24:40.825Z,55.38
2022-08-14T12:25:38.642Z,53.81
2022-08-14T12:26:40.741Z,55.57
2022-08-14T12:27:41.713Z,57.07
2022-08-14T12:28:59.187Z,56.29
2022-08-14T12:29:38.359Z,55.24
2022-08-14T12:30:42.389Z,54.36
2022-08-14T12:31:44.462Z,52.79
2022-08-14T12:32:38.158Z,51.44
2022-08-14T12:33:38.090Z,51.34
2022-08-14T12:34:38.017Z,54.70
2022-08-14T12:35:39.792Z,53.16
2022-08-14T12:36:37.888Z,53.28
2022-08-14T12:37:37.812Z,52.50
2022-08-14T12:38:37.753Z,49.87
2022-08-14T12:39:39.742Z,47.83
2022-08-14T12:40:37.612Z,51.20
2022-08-14T12:41:37.542Z,49.28
2022-08-14T12:42:40.724Z,46.69
2022-08-14T12:43:37.406Z,47.13
2022-08-14T12:44:37.362Z,43.82
2022-08-14T12:45:37.285Z,44.06
2022-08-14T12:46:37.207Z,40.45
2022-08-14T12:47:37.206Z,39.89
2022-08-14T12:48:37.068Z,41.39
2022-08-14T12:49:36.999Z,39.15
2022-08-14T12:50:36.933Z,39.98
2022-08-14T12:51:36.878Z,39.92
2022-08-14T12:52:47.320Z,38.97
2022-08-14T12:53:38.714Z,37.62
2022-08-14T12:54:36.936Z,37.67